sensor_id;sensor_type;location;lat;lon;timestamp;temperature;humidity
25046;DHT22;13044;49.304;12.840;2024-01-06T00:02:15;5.60;99.90
25046;DHT22;13044;49.304;12.840;2024-01-06T00:04:42;5.60;99.90
25046;DHT22;13044;49.304;12.840;2024-01-06T00:07:09;5.60;99.90
25046;DHT22;13044;49.304;12.840;2024-01-06T00:09:36;5.60;99.90
25046;DHT22;13044;49.304;12.840;2024-01-06T00:12:04;5.60;99.90
25046;DHT22;13044;49.304;12.840;2024-01-06T00:14:31;5.60;99.90
25046;DHT22;13044;49.304;12.840;2024-01-06T00:16:58;5.60;99.90
25046;DHT22;13044;49.304;12.840;2024-01-06T00:19:24;5.60;99.90
25046;DHT22;13044;49.304;12.840;2024-01-06T00:21:51;5.60;99.90
25046;DHT22;13044;49.304;12.840;2024-01-06T00:24:18;5.60;99.90
25046;DHT22;13044;49.304;12.840;2024-01-06T00:26:45;5.60;99.90
25046;DHT22;13044;49.304;12.840;2024-01-06T00:29:12;5.60;99.90
25046;DHT22;13044;49.304;12.840;2024-01-06T00:31:39;5.60;99.90
25046;DHT22;13044;49.304;12.840;2024-01-06T00:34:07;5.60;99.90
25046;DHT22;13044;49.304;12.840;2024-01-06T00:36:34;5.60;99.90
25046;DHT22;13044;49.304;12.840;2024-01-06T00:39:01;5.60;99.90
25046;DHT22;13044;49.304;12.840;2024-01-06T00:41:28;5.60;99.90
25046;DHT22;13044;49.304;12.840;2024-01-06T00:43:55;5.60;99.90
25046;DHT22;13044;49.304;12.840;2024-01-06T00:46:22;5.60;99.90
25046;DHT22;13044;49.304;12.840;2024-01-06T00:48:48;5.60;99.90
25046;DHT22;13044;49.304;12.840;2024-01-06T00:51:16;5.60;99.90
25046;DHT22;13044;49.304;12.840;2024-01-06T00:53:42;5.60;99.90
25046;DHT22;13044;49.304;12.840;2024-01-06T00:56:09;5.60;99.90
25046;DHT22;13044;49.304;12.840;2024-01-06T00:58:36;5.60;99.90
25046;DHT22;13044;49.304;12.840;2024-01-06T01:01:03;5.60;99.90
25046;DHT22;13044;49.304;12.840;2024-01-06T01:03:30;5.70;99.90
25046;DHT22;13044;49.304;12.840;2024-01-06T01:05:57;5.60;99.90
25046;DHT22;13044;49.304;12.840;2024-01-06T01:08:24;5.60;99.90
25046;DHT22;13044;49.304;12.840;2024-01-06T01:10:51;5.60;99.90
25046;DHT22;13044;49.304;12.840;2024-01-06T01:13:18;5.70;99.90
25046;DHT22;13044;49.304;12.840;2024-01-06T01:15:45;5.70;99.90
25046;DHT22;13044;49.304;12.840;2024-01-06T01:18:12;5.70;99.90
25046;DHT22;13044;49.304;12.840;2024-01-06T01:20:40;5.70;99.90
25046;DHT22;13044;49.304;12.840;2024-01-06T01:23:08;5.60;99.90
25046;DHT22;13044;49.304;12.840;2024-01-06T01:25:35;5.70;99.90
25046;DHT22;13044;49.304;12.840;2024-01-06T01:28:02;5.70;99.90
25046;DHT22;13044;49.304;12.840;2024-01-06T01:30:29;5.70;99.90
25046;DHT22;13044;49.304;12.840;2024-01-06T01:32:56;5.70;99.90
25046;DHT22;13044;49.304;12.840;2024-01-06T01:35:23;5.70;99.90
25046;DHT22;13044;49.304;12.840;2024-01-06T01:37:50;5.70;99.90
25046;DHT22;13044;49.304;12.840;2024-01-06T01:40:17;5.70;99.90
25046;DHT22;13044;49.304;12.840;2024-01-06T01:42:43;5.70;99.90
25046;DHT22;13044;49.304;12.840;2024-01-06T01:45:10;5.70;99.90
25046;DHT22;13044;49.304;12.840;2024-01-06T01:47:39;5.70;99.90
25046;DHT22;13044;49.304;12.840;2024-01-06T01:50:07;5.70;99.90
25046;DHT22;13044;49.304;12.840;2024-01-06T01:52:35;5.70;99.90
25046;DHT22;13044;49.304;12.840;2024-01-06T01:55:03;5.70;99.90
25046;DHT22;13044;49.304;12.840;2024-01-06T01:57:30;5.70;99.90
25046;DHT22;13044;49.304;12.840;2024-01-06T01:59:58;5.70;99.90
25046;DHT22;13044;49.304;12.840;2024-01-06T02:02:27;5.70;99.90
25046;DHT22;13044;49.304;12.840;2024-01-06T02:04:56;5.70;99.90
25046;DHT22;13044;49.304;12.840;2024-01-06T02:07:23;5.70;99.90
25046;DHT22;13044;49.304;12.840;2024-01-06T02:09:50;5.70;99.90
25046;DHT22;13044;49.304;12.840;2024-01-06T02:12:17;5.70;99.90
25046;DHT22;13044;49.304;12.840;2024-01-06T02:14:43;5.70;99.90
25046;DHT22;13044;49.304;12.840;2024-01-06T02:17:10;5.70;99.90
25046;DHT22;13044;49.304;12.840;2024-01-06T02:19:37;5.70;99.90
25046;DHT22;13044;49.304;12.840;2024-01-06T02:22:04;5.80;99.90
25046;DHT22;13044;49.304;12.840;2024-01-06T02:24:31;5.80;99.90
25046;DHT22;13044;49.304;12.840;2024-01-06T02:26:58;5.70;99.90
25046;DHT22;13044;49.304;12.840;2024-01-06T02:29:25;5.70;99.90
25046;DHT22;13044;49.304;12.840;2024-01-06T02:31:52;5.70;99.90
25046;DHT22;13044;49.304;12.840;2024-01-06T02:34:19;5.70;99.90
25046;DHT22;13044;49.304;12.840;2024-01-06T02:36:46;5.80;99.90
25046;DHT22;13044;49.304;12.840;2024-01-06T02:39:13;5.70;99.90
25046;DHT22;13044;49.304;12.840;2024-01-06T02:41:39;5.70;99.90
25046;DHT22;13044;49.304;12.840;2024-01-06T02:44:06;5.80;99.90
25046;DHT22;13044;49.304;12.840;2024-01-06T02:46:39;5.80;99.90
25046;DHT22;13044;49.304;12.840;2024-01-06T02:49:07;5.80;99.90
25046;DHT22;13044;49.304;12.840;2024-01-06T02:51:34;5.80;99.90
25046;DHT22;13044;49.304;12.840;2024-01-06T02:54:01;5.80;99.90
25046;DHT22;13044;49.304;12.840;2024-01-06T02:56:28;5.80;99.90
25046;DHT22;13044;49.304;12.840;2024-01-06T02:58:55;5.80;99.90
25046;DHT22;13044;49.304;12.840;2024-01-06T03:01:22;5.80;99.90
25046;DHT22;13044;49.304;12.840;2024-01-06T03:03:49;5.80;99.90
25046;DHT22;13044;49.304;12.840;2024-01-06T03:06:16;5.80;99.90
25046;DHT22;13044;49.304;12.840;2024-01-06T03:08:43;5.80;99.90
25046;DHT22;13044;49.304;12.840;2024-01-06T03:11:10;5.80;99.90
25046;DHT22;13044;49.304;12.840;2024-01-06T03:13:37;5.80;99.90
25046;DHT22;13044;49.304;12.840;2024-01-06T03:16:04;5.80;99.90
25046;DHT22;13044;49.304;12.840;2024-01-06T03:18:34;5.80;99.90
25046;DHT22;13044;49.304;12.840;2024-01-06T03:21:01;5.80;99.90
25046;DHT22;13044;49.304;12.840;2024-01-06T03:23:28;5.80;99.90
25046;DHT22;13044;49.304;12.840;2024-01-06T03:25:54;5.80;99.90
25046;DHT22;13044;49.304;12.840;2024-01-06T03:28:21;5.80;99.90
25046;DHT22;13044;49.304;12.840;2024-01-06T03:30:48;5.80;99.90
25046;DHT22;13044;49.304;12.840;2024-01-06T03:33:15;5.80;99.90
25046;DHT22;13044;49.304;12.840;2024-01-06T03:35:42;5.80;99.90
25046;DHT22;13044;49.304;12.840;2024-01-06T03:38:09;5.80;99.90
25046;DHT22;13044;49.304;12.840;2024-01-06T03:40:36;5.80;99.90
25046;DHT22;13044;49.304;12.840;2024-01-06T03:43:03;5.80;99.90
25046;DHT22;13044;49.304;12.840;2024-01-06T03:45:30;5.80;99.90
25046;DHT22;13044;49.304;12.840;2024-01-06T03:47:57;5.80;99.90
25046;DHT22;13044;49.304;12.840;2024-01-06T03:50:24;5.80;99.90
25046;DHT22;13044;49.304;12.840;2024-01-06T03:52:50;5.90;99.90
25046;DHT22;13044;49.304;12.840;2024-01-06T03:55:17;5.80;99.90
25046;DHT22;13044;49.304;12.840;2024-01-06T03:57:44;5.90;99.90
25046;DHT22;13044;49.304;12.840;2024-01-06T04:00:11;5.90;99.90
25046;DHT22;13044;49.304;12.840;2024-01-06T04:02:38;5.90;99.90
25046;DHT22;13044;49.304;12.840;2024-01-06T04:05:05;5.90;99.90
25046;DHT22;13044;49.304;12.840;2024-01-06T04:07:32;5.90;99.90
25046;DHT22;13044;49.304;12.840;2024-01-06T04:09:59;5.90;99.90
25046;DHT22;13044;49.304;12.840;2024-01-06T04:12:26;5.90;99.90
25046;DHT22;13044;49.304;12.840;2024-01-06T04:14:53;5.90;99.90
25046;DHT22;13044;49.304;12.840;2024-01-06T04:17:20;5.90;99.90
25046;DHT22;13044;49.304;12.840;2024-01-06T04:19:47;5.90;99.90
25046;DHT22;13044;49.304;12.840;2024-01-06T04:22:14;5.80;99.90
25046;DHT22;13044;49.304;12.840;2024-01-06T04:24:41;5.90;99.90
25046;DHT22;13044;49.304;12.840;2024-01-06T04:27:08;5.80;99.90
25046;DHT22;13044;49.304;12.840;2024-01-06T04:29:36;5.80;99.90
25046;DHT22;13044;49.304;12.840;2024-01-06T04:32:03;5.90;99.90
25046;DHT22;13044;49.304;12.840;2024-01-06T04:34:30;5.90;99.90
25046;DHT22;13044;49.304;12.840;2024-01-06T04:36:57;5.90;99.90
25046;DHT22;13044;49.304;12.840;2024-01-06T04:39:24;5.90;99.90
25046;DHT22;13044;49.304;12.840;2024-01-06T04:41:51;5.90;99.90
25046;DHT22;13044;49.304;12.840;2024-01-06T04:44:21;5.90;99.90
25046;DHT22;13044;49.304;12.840;2024-01-06T04:46:48;5.80;99.90
25046;DHT22;13044;49.304;12.840;2024-01-06T04:49:15;5.90;99.90
25046;DHT22;13044;49.304;12.840;2024-01-06T04:51:42;5.90;99.90
25046;DHT22;13044;49.304;12.840;2024-01-06T04:54:09;5.90;99.90
25046;DHT22;13044;49.304;12.840;2024-01-06T04:56:36;5.90;99.90
25046;DHT22;13044;49.304;12.840;2024-01-06T04:59:03;5.90;99.90
25046;DHT22;13044;49.304;12.840;2024-01-06T05:01:30;5.90;99.90
25046;DHT22;13044;49.304;12.840;2024-01-06T05:03:57;5.90;99.90
25046;DHT22;13044;49.304;12.840;2024-01-06T05:06:24;5.90;99.90
25046;DHT22;13044;49.304;12.840;2024-01-06T05:08:51;5.90;99.90
25046;DHT22;13044;49.304;12.840;2024-01-06T05:11:18;5.90;99.90
25046;DHT22;13044;49.304;12.840;2024-01-06T05:13:45;5.90;99.90
25046;DHT22;13044;49.304;12.840;2024-01-06T05:16:12;5.90;99.90
25046;DHT22;13044;49.304;12.840;2024-01-06T05:18:39;5.90;99.90
25046;DHT22;13044;49.304;12.840;2024-01-06T05:21:06;5.90;99.90
25046;DHT22;13044;49.304;12.840;2024-01-06T05:23:33;5.90;99.90
25046;DHT22;13044;49.304;12.840;2024-01-06T05:26:00;5.90;99.90
25046;DHT22;13044;49.304;12.840;2024-01-06T05:28:27;5.90;99.90
25046;DHT22;13044;49.304;12.840;2024-01-06T05:30:54;5.90;99.90
25046;DHT22;13044;49.304;12.840;2024-01-06T05:33:21;5.90;99.90
25046;DHT22;13044;49.304;12.840;2024-01-06T05:35:48;5.90;99.90
25046;DHT22;13044;49.304;12.840;2024-01-06T05:38:15;5.90;99.90
25046;DHT22;13044;49.304;12.840;2024-01-06T05:40:43;5.90;99.90
25046;DHT22;13044;49.304;12.840;2024-01-06T05:43:10;5.90;99.90
25046;DHT22;13044;49.304;12.840;2024-01-06T05:45:37;5.90;99.90
25046;DHT22;13044;49.304;12.840;2024-01-06T05:48:08;5.90;99.90
25046;DHT22;13044;49.304;12.840;2024-01-06T05:50:40;5.90;99.90
25046;DHT22;13044;49.304;12.840;2024-01-06T05:53:07;5.90;99.90
25046;DHT22;13044;49.304;12.840;2024-01-06T05:55:34;5.90;99.90
25046;DHT22;13044;49.304;12.840;2024-01-06T05:58:02;5.90;99.90
25046;DHT22;13044;49.304;12.840;2024-01-06T06:00:29;5.90;99.90
25046;DHT22;13044;49.304;12.840;2024-01-06T06:02:58;5.90;99.90
25046;DHT22;13044;49.304;12.840;2024-01-06T06:05:25;5.90;99.90
25046;DHT22;13044;49.304;12.840;2024-01-06T06:07:52;5.90;99.90
25046;DHT22;13044;49.304;12.840;2024-01-06T06:10:19;5.90;99.90
25046;DHT22;13044;49.304;12.840;2024-01-06T06:12:47;5.90;99.90
25046;DHT22;13044;49.304;12.840;2024-01-06T06:15:14;5.90;99.90
25046;DHT22;13044;49.304;12.840;2024-01-06T06:17:41;5.90;99.90
25046;DHT22;13044;49.304;12.840;2024-01-06T06:20:08;5.90;99.90
25046;DHT22;13044;49.304;12.840;2024-01-06T06:22:35;5.90;99.90
25046;DHT22;13044;49.304;12.840;2024-01-06T06:25:03;5.90;99.90
25046;DHT22;13044;49.304;12.840;2024-01-06T06:27:30;5.90;99.90
25046;DHT22;13044;49.304;12.840;2024-01-06T06:29:57;5.90;99.90
25046;DHT22;13044;49.304;12.840;2024-01-06T06:32:24;5.90;99.90
25046;DHT22;13044;49.304;12.840;2024-01-06T06:34:52;5.90;99.90
25046;DHT22;13044;49.304;12.840;2024-01-06T06:37:19;5.90;99.90
25046;DHT22;13044;49.304;12.840;2024-01-06T06:39:46;5.90;99.90
25046;DHT22;13044;49.304;12.840;2024-01-06T06:42:13;5.90;99.90
25046;DHT22;13044;49.304;12.840;2024-01-06T06:44:41;5.90;99.90
25046;DHT22;13044;49.304;12.840;2024-01-06T06:47:08;5.90;99.90
25046;DHT22;13044;49.304;12.840;2024-01-06T06:49:35;5.90;99.90
25046;DHT22;13044;49.304;12.840;2024-01-06T06:52:02;5.90;99.90
25046;DHT22;13044;49.304;12.840;2024-01-06T06:54:30;5.90;99.90
25046;DHT22;13044;49.304;12.840;2024-01-06T06:56:57;5.90;99.90
25046;DHT22;13044;49.304;12.840;2024-01-06T06:59:24;5.90;99.90
25046;DHT22;13044;49.304;12.840;2024-01-06T07:01:51;5.90;99.90
25046;DHT22;13044;49.304;12.840;2024-01-06T07:04:18;5.90;99.90
25046;DHT22;13044;49.304;12.840;2024-01-06T07:06:45;5.90;99.90
25046;DHT22;13044;49.304;12.840;2024-01-06T07:09:12;5.80;99.90
25046;DHT22;13044;49.304;12.840;2024-01-06T07:11:39;5.80;99.90
25046;DHT22;13044;49.304;12.840;2024-01-06T07:14:05;5.80;99.90
25046;DHT22;13044;49.304;12.840;2024-01-06T07:16:32;5.80;99.90
25046;DHT22;13044;49.304;12.840;2024-01-06T07:18:59;5.80;99.90
25046;DHT22;13044;49.304;12.840;2024-01-06T07:21:26;5.80;99.90
25046;DHT22;13044;49.304;12.840;2024-01-06T07:23:53;5.80;99.90
25046;DHT22;13044;49.304;12.840;2024-01-06T07:26:20;5.80;99.90
25046;DHT22;13044;49.304;12.840;2024-01-06T07:28:47;5.80;99.90
25046;DHT22;13044;49.304;12.840;2024-01-06T07:31:14;5.80;99.90
25046;DHT22;13044;49.304;12.840;2024-01-06T07:33:41;5.80;99.90
25046;DHT22;13044;49.304;12.840;2024-01-06T07:36:08;5.80;99.90
25046;DHT22;13044;49.304;12.840;2024-01-06T07:38:35;5.80;99.90
25046;DHT22;13044;49.304;12.840;2024-01-06T07:41:03;5.80;99.90
25046;DHT22;13044;49.304;12.840;2024-01-06T07:43:31;5.80;99.90
25046;DHT22;13044;49.304;12.840;2024-01-06T07:45:58;5.80;99.90
25046;DHT22;13044;49.304;12.840;2024-01-06T07:48:25;5.80;99.90
25046;DHT22;13044;49.304;12.840;2024-01-06T07:50:52;5.80;99.90
25046;DHT22;13044;49.304;12.840;2024-01-06T07:53:19;5.80;99.90
25046;DHT22;13044;49.304;12.840;2024-01-06T07:55:46;5.80;99.90
25046;DHT22;13044;49.304;12.840;2024-01-06T07:58:12;5.90;99.90
25046;DHT22;13044;49.304;12.840;2024-01-06T08:00:39;5.90;99.90
25046;DHT22;13044;49.304;12.840;2024-01-06T08:03:07;5.90;99.90
25046;DHT22;13044;49.304;12.840;2024-01-06T08:05:33;5.90;99.90
25046;DHT22;13044;49.304;12.840;2024-01-06T08:08:00;5.90;99.90
25046;DHT22;13044;49.304;12.840;2024-01-06T08:10:27;6.00;99.90
25046;DHT22;13044;49.304;12.840;2024-01-06T08:12:54;6.00;99.90
25046;DHT22;13044;49.304;12.840;2024-01-06T08:15:21;6.00;99.90
25046;DHT22;13044;49.304;12.840;2024-01-06T08:17:49;6.00;99.90
25046;DHT22;13044;49.304;12.840;2024-01-06T08:20:16;6.10;99.90
25046;DHT22;13044;49.304;12.840;2024-01-06T08:22:43;6.10;99.90
25046;DHT22;13044;49.304;12.840;2024-01-06T08:25:10;6.10;99.90
25046;DHT22;13044;49.304;12.840;2024-01-06T08:27:37;6.10;99.90
25046;DHT22;13044;49.304;12.840;2024-01-06T08:30:04;6.20;99.90
25046;DHT22;13044;49.304;12.840;2024-01-06T08:32:32;6.20;99.90
25046;DHT22;13044;49.304;12.840;2024-01-06T08:34:59;6.20;99.90
25046;DHT22;13044;49.304;12.840;2024-01-06T08:37:26;6.20;99.90
25046;DHT22;13044;49.304;12.840;2024-01-06T08:39:53;6.20;99.90
25046;DHT22;13044;49.304;12.840;2024-01-06T08:42:20;6.20;99.90
25046;DHT22;13044;49.304;12.840;2024-01-06T08:44:48;6.20;99.90
25046;DHT22;13044;49.304;12.840;2024-01-06T08:47:15;6.20;99.90
25046;DHT22;13044;49.304;12.840;2024-01-06T08:49:42;6.20;99.90
25046;DHT22;13044;49.304;12.840;2024-01-06T08:52:09;6.30;99.90
25046;DHT22;13044;49.304;12.840;2024-01-06T08:54:36;6.20;99.90
25046;DHT22;13044;49.304;12.840;2024-01-06T08:57:03;6.30;99.90
25046;DHT22;13044;49.304;12.840;2024-01-06T08:59:30;6.30;99.90
25046;DHT22;13044;49.304;12.840;2024-01-06T09:01:57;6.30;99.90
25046;DHT22;13044;49.304;12.840;2024-01-06T09:04:24;6.30;99.90
25046;DHT22;13044;49.304;12.840;2024-01-06T09:06:51;6.30;99.90
25046;DHT22;13044;49.304;12.840;2024-01-06T09:09:18;6.30;99.90
25046;DHT22;13044;49.304;12.840;2024-01-06T09:11:45;6.40;99.90
25046;DHT22;13044;49.304;12.840;2024-01-06T09:14:12;6.40;99.90
25046;DHT22;13044;49.304;12.840;2024-01-06T09:16:39;6.40;99.90
25046;DHT22;13044;49.304;12.840;2024-01-06T09:19:06;6.40;99.90
25046;DHT22;13044;49.304;12.840;2024-01-06T09:21:34;6.40;99.90
25046;DHT22;13044;49.304;12.840;2024-01-06T09:24:02;6.50;99.90
25046;DHT22;13044;49.304;12.840;2024-01-06T09:26:33;6.50;99.90
25046;DHT22;13044;49.304;12.840;2024-01-06T09:29:03;6.50;99.90
25046;DHT22;13044;49.304;12.840;2024-01-06T09:31:30;6.60;99.90
25046;DHT22;13044;49.304;12.840;2024-01-06T09:34:01;6.60;99.90
25046;DHT22;13044;49.304;12.840;2024-01-06T09:36:31;6.60;99.90
25046;DHT22;13044;49.304;12.840;2024-01-06T09:38:58;6.60;99.90
25046;DHT22;13044;49.304;12.840;2024-01-06T09:41:25;6.60;99.90
25046;DHT22;13044;49.304;12.840;2024-01-06T09:43:52;6.60;99.90
25046;DHT22;13044;49.304;12.840;2024-01-06T09:46:26;6.60;99.90
25046;DHT22;13044;49.304;12.840;2024-01-06T09:48:56;6.60;99.90
25046;DHT22;13044;49.304;12.840;2024-01-06T09:51:25;6.70;99.90
25046;DHT22;13044;49.304;12.840;2024-01-06T09:53:58;6.70;99.90
25046;DHT22;13044;49.304;12.840;2024-01-06T09:56:27;6.70;99.90
25046;DHT22;13044;49.304;12.840;2024-01-06T09:58:56;6.80;99.90
25046;DHT22;13044;49.304;12.840;2024-01-06T10:01:23;6.80;99.90
25046;DHT22;13044;49.304;12.840;2024-01-06T10:03:51;6.80;99.90
25046;DHT22;13044;49.304;12.840;2024-01-06T10:06:18;6.80;99.90
25046;DHT22;13044;49.304;12.840;2024-01-06T10:08:51;6.80;99.90
25046;DHT22;13044;49.304;12.840;2024-01-06T10:11:27;6.90;99.90
25046;DHT22;13044;49.304;12.840;2024-01-06T10:13:54;6.90;99.90
25046;DHT22;13044;49.304;12.840;2024-01-06T10:16:21;6.90;99.90
25046;DHT22;13044;49.304;12.840;2024-01-06T10:18:49;6.90;99.90
25046;DHT22;13044;49.304;12.840;2024-01-06T10:21:21;6.90;99.90
25046;DHT22;13044;49.304;12.840;2024-01-06T10:23:48;6.90;99.90
25046;DHT22;13044;49.304;12.840;2024-01-06T10:26:15;7.00;99.90
25046;DHT22;13044;49.304;12.840;2024-01-06T10:28:44;7.00;99.90
25046;DHT22;13044;49.304;12.840;2024-01-06T10:31:11;7.00;99.90
25046;DHT22;13044;49.304;12.840;2024-01-06T10:33:38;7.00;99.90
25046;DHT22;13044;49.304;12.840;2024-01-06T10:36:06;7.10;99.90
25046;DHT22;13044;49.304;12.840;2024-01-06T10:38:35;7.10;99.90
25046;DHT22;13044;49.304;12.840;2024-01-06T10:41:03;7.10;99.90
25046;DHT22;13044;49.304;12.840;2024-01-06T10:43:35;7.20;99.90
25046;DHT22;13044;49.304;12.840;2024-01-06T10:46:07;7.20;99.90
25046;DHT22;13044;49.304;12.840;2024-01-06T10:48:39;7.30;99.90
25046;DHT22;13044;49.304;12.840;2024-01-06T10:51:11;7.30;99.90
25046;DHT22;13044;49.304;12.840;2024-01-06T10:53:41;7.40;99.90
25046;DHT22;13044;49.304;12.840;2024-01-06T10:56:09;7.40;99.90
25046;DHT22;13044;49.304;12.840;2024-01-06T10:58:46;7.40;99.90
25046;DHT22;13044;49.304;12.840;2024-01-06T11:01:23;7.40;99.90
25046;DHT22;13044;49.304;12.840;2024-01-06T11:03:55;7.40;99.90
25046;DHT22;13044;49.304;12.840;2024-01-06T11:06:23;7.40;99.90
25046;DHT22;13044;49.304;12.840;2024-01-06T11:08:56;7.40;99.90
25046;DHT22;13044;49.304;12.840;2024-01-06T11:11:28;7.50;99.90
25046;DHT22;13044;49.304;12.840;2024-01-06T11:14:19;7.50;99.90
25046;DHT22;13044;49.304;12.840;2024-01-06T11:16:47;7.50;99.90
25046;DHT22;13044;49.304;12.840;2024-01-06T11:22:31;7.60;99.90
25046;DHT22;13044;49.304;12.840;2024-01-06T11:25:05;7.60;99.90
25046;DHT22;13044;49.304;12.840;2024-01-06T11:27:42;7.60;99.90
25046;DHT22;13044;49.304;12.840;2024-01-06T11:30:22;7.60;99.90
25046;DHT22;13044;49.304;12.840;2024-01-06T11:32:51;7.60;99.90
25046;DHT22;13044;49.304;12.840;2024-01-06T11:35:21;7.60;99.90
25046;DHT22;13044;49.304;12.840;2024-01-06T11:40:36;7.70;99.90
25046;DHT22;13044;49.304;12.840;2024-01-06T11:43:08;7.70;99.90
25046;DHT22;13044;49.304;12.840;2024-01-06T11:45:37;7.70;99.90
25046;DHT22;13044;49.304;12.840;2024-01-06T11:48:09;7.80;99.90
25046;DHT22;13044;49.304;12.840;2024-01-06T11:50:39;7.80;99.90
25046;DHT22;13044;49.304;12.840;2024-01-06T11:53:08;7.80;99.90
25046;DHT22;13044;49.304;12.840;2024-01-06T11:55:41;7.70;99.90
25046;DHT22;13044;49.304;12.840;2024-01-06T11:58:09;7.70;99.90
25046;DHT22;13044;49.304;12.840;2024-01-06T12:00:36;7.70;99.90
25046;DHT22;13044;49.304;12.840;2024-01-06T12:03:06;7.70;99.90
25046;DHT22;13044;49.304;12.840;2024-01-06T12:05:33;7.70;99.90
25046;DHT22;13044;49.304;12.840;2024-01-06T12:08:01;7.60;99.90
25046;DHT22;13044;49.304;12.840;2024-01-06T12:10:31;7.60;99.90
25046;DHT22;13044;49.304;12.840;2024-01-06T12:13:01;7.60;99.90
25046;DHT22;13044;49.304;12.840;2024-01-06T12:15:31;7.60;99.90
25046;DHT22;13044;49.304;12.840;2024-01-06T12:17:59;7.60;99.90
25046;DHT22;13044;49.304;12.840;2024-01-06T12:20:29;7.70;99.90
25046;DHT22;13044;49.304;12.840;2024-01-06T12:22:56;7.70;99.90
25046;DHT22;13044;49.304;12.840;2024-01-06T12:25:25;7.70;99.90
25046;DHT22;13044;49.304;12.840;2024-01-06T12:27:52;7.70;99.90
25046;DHT22;13044;49.304;12.840;2024-01-06T12:30:22;7.60;99.90
25046;DHT22;13044;49.304;12.840;2024-01-06T12:32:51;7.60;99.90
25046;DHT22;13044;49.304;12.840;2024-01-06T12:35:21;7.60;99.90
25046;DHT22;13044;49.304;12.840;2024-01-06T12:37:49;7.60;99.90
25046;DHT22;13044;49.304;12.840;2024-01-06T12:40:16;7.60;99.90
25046;DHT22;13044;49.304;12.840;2024-01-06T12:42:45;7.60;99.90
25046;DHT22;13044;49.304;12.840;2024-01-06T12:45:12;7.60;99.90
25046;DHT22;13044;49.304;12.840;2024-01-06T12:47:42;7.60;99.90
25046;DHT22;13044;49.304;12.840;2024-01-06T12:50:09;7.60;99.90
25046;DHT22;13044;49.304;12.840;2024-01-06T12:52:36;7.60;99.90
25046;DHT22;13044;49.304;12.840;2024-01-06T12:55:06;7.60;99.90
25046;DHT22;13044;49.304;12.840;2024-01-06T12:57:34;7.60;99.90
25046;DHT22;13044;49.304;12.840;2024-01-06T13:00:01;7.70;99.90
25046;DHT22;13044;49.304;12.840;2024-01-06T13:02:29;7.70;99.90
25046;DHT22;13044;49.304;12.840;2024-01-06T13:04:56;7.70;99.90
25046;DHT22;13044;49.304;12.840;2024-01-06T13:07:23;7.70;99.90
25046;DHT22;13044;49.304;12.840;2024-01-06T13:09:50;7.70;99.90
25046;DHT22;13044;49.304;12.840;2024-01-06T13:12:17;7.70;99.90
25046;DHT22;13044;49.304;12.840;2024-01-06T13:14:45;7.70;99.90
25046;DHT22;13044;49.304;12.840;2024-01-06T13:17:14;7.70;99.90
25046;DHT22;13044;49.304;12.840;2024-01-06T13:19:41;7.70;99.90
25046;DHT22;13044;49.304;12.840;2024-01-06T13:22:08;7.70;99.90
25046;DHT22;13044;49.304;12.840;2024-01-06T13:24:35;7.70;99.90
25046;DHT22;13044;49.304;12.840;2024-01-06T13:27:02;7.70;99.90
25046;DHT22;13044;49.304;12.840;2024-01-06T13:29:31;7.70;99.90
25046;DHT22;13044;49.304;12.840;2024-01-06T13:31:58;7.70;99.90
25046;DHT22;13044;49.304;12.840;2024-01-06T13:34:26;7.70;99.90
25046;DHT22;13044;49.304;12.840;2024-01-06T13:36:54;7.70;99.90
25046;DHT22;13044;49.304;12.840;2024-01-06T13:39:23;7.70;99.90
25046;DHT22;13044;49.304;12.840;2024-01-06T13:41:50;7.70;99.90
25046;DHT22;13044;49.304;12.840;2024-01-06T13:44:17;7.70;99.90
25046;DHT22;13044;49.304;12.840;2024-01-06T13:46:45;7.70;99.90
25046;DHT22;13044;49.304;12.840;2024-01-06T13:49:12;7.70;99.90
25046;DHT22;13044;49.304;12.840;2024-01-06T13:51:40;7.70;99.90
25046;DHT22;13044;49.304;12.840;2024-01-06T13:54:07;7.70;99.90
25046;DHT22;13044;49.304;12.840;2024-01-06T13:56:36;7.70;99.90
25046;DHT22;13044;49.304;12.840;2024-01-06T13:59:03;7.70;99.90
25046;DHT22;13044;49.304;12.840;2024-01-06T14:01:30;7.70;99.90
25046;DHT22;13044;49.304;12.840;2024-01-06T14:03:58;7.70;99.90
25046;DHT22;13044;49.304;12.840;2024-01-06T14:06:25;7.70;99.90
25046;DHT22;13044;49.304;12.840;2024-01-06T14:08:57;7.70;99.90
25046;DHT22;13044;49.304;12.840;2024-01-06T14:11:26;7.70;99.90
25046;DHT22;13044;49.304;12.840;2024-01-06T14:13:53;7.70;99.90
25046;DHT22;13044;49.304;12.840;2024-01-06T14:16:20;7.70;99.90
25046;DHT22;13044;49.304;12.840;2024-01-06T14:18:47;7.70;99.90
25046;DHT22;13044;49.304;12.840;2024-01-06T14:21:15;7.70;99.90
25046;DHT22;13044;49.304;12.840;2024-01-06T14:23:46;7.60;99.90
25046;DHT22;13044;49.304;12.840;2024-01-06T14:26:17;7.60;99.90
25046;DHT22;13044;49.304;12.840;2024-01-06T14:28:47;7.60;99.90
25046;DHT22;13044;49.304;12.840;2024-01-06T14:31:15;7.60;99.90
25046;DHT22;13044;49.304;12.840;2024-01-06T14:33:42;7.50;99.90
25046;DHT22;13044;49.304;12.840;2024-01-06T14:36:09;7.50;99.90
25046;DHT22;13044;49.304;12.840;2024-01-06T14:38:36;7.50;99.90
25046;DHT22;13044;49.304;12.840;2024-01-06T14:41:03;7.50;99.90
25046;DHT22;13044;49.304;12.840;2024-01-06T14:43:30;7.40;99.90
25046;DHT22;13044;49.304;12.840;2024-01-06T14:45:57;7.50;99.90
25046;DHT22;13044;49.304;12.840;2024-01-06T14:48:24;7.50;99.90
25046;DHT22;13044;49.304;12.840;2024-01-06T14:50:51;7.40;99.90
25046;DHT22;13044;49.304;12.840;2024-01-06T14:53:18;7.30;99.90
25046;DHT22;13044;49.304;12.840;2024-01-06T14:55:45;7.30;99.90
25046;DHT22;13044;49.304;12.840;2024-01-06T14:58:12;7.30;99.90
25046;DHT22;13044;49.304;12.840;2024-01-06T15:00:39;7.30;99.90
25046;DHT22;13044;49.304;12.840;2024-01-06T15:03:06;7.30;99.90
25046;DHT22;13044;49.304;12.840;2024-01-06T15:05:33;7.20;99.90
25046;DHT22;13044;49.304;12.840;2024-01-06T15:08:00;7.20;99.90
25046;DHT22;13044;49.304;12.840;2024-01-06T15:10:27;7.20;99.90
25046;DHT22;13044;49.304;12.840;2024-01-06T15:12:54;7.20;99.90
25046;DHT22;13044;49.304;12.840;2024-01-06T15:15:21;7.20;99.90
25046;DHT22;13044;49.304;12.840;2024-01-06T15:17:48;7.20;99.90
25046;DHT22;13044;49.304;12.840;2024-01-06T15:20:15;7.20;99.90
25046;DHT22;13044;49.304;12.840;2024-01-06T15:22:42;7.10;99.90
25046;DHT22;13044;49.304;12.840;2024-01-06T15:25:10;7.10;99.90
25046;DHT22;13044;49.304;12.840;2024-01-06T15:27:37;7.10;99.90
25046;DHT22;13044;49.304;12.840;2024-01-06T15:30:04;7.10;99.90
25046;DHT22;13044;49.304;12.840;2024-01-06T15:32:35;7.10;99.90
25046;DHT22;13044;49.304;12.840;2024-01-06T15:35:03;7.00;99.90
25046;DHT22;13044;49.304;12.840;2024-01-06T15:37:30;7.00;99.90
25046;DHT22;13044;49.304;12.840;2024-01-06T15:39:58;7.00;99.90